sensor_id;sensor_type;location;lat;lon;timestamp;temperature;humidity
12948;DHT22;6539;49.476;8.484;2023-08-30T00:02:17;16.70;99.90
12948;DHT22;6539;49.476;8.484;2023-08-30T00:05:04;16.60;99.90
12948;DHT22;6539;49.476;8.484;2023-08-30T00:07:52;16.60;99.90
12948;DHT22;6539;49.476;8.484;2023-08-30T00:10:38;16.50;99.90
12948;DHT22;6539;49.476;8.484;2023-08-30T00:13:31;16.50;99.90
12948;DHT22;6539;49.476;8.484;2023-08-30T00:16:18;16.50;99.90
12948;DHT22;6539;49.476;8.484;2023-08-30T00:19:04;16.60;99.90
12948;DHT22;6539;49.476;8.484;2023-08-30T00:21:51;16.50;99.90
12948;DHT22;6539;49.476;8.484;2023-08-30T00:24:37;16.50;99.90
12948;DHT22;6539;49.476;8.484;2023-08-30T00:27:23;16.50;99.90
12948;DHT22;6539;49.476;8.484;2023-08-30T00:30:10;16.40;99.90
12948;DHT22;6539;49.476;8.484;2023-08-30T00:32:57;16.40;99.90
12948;DHT22;6539;49.476;8.484;2023-08-30T00:35:43;16.40;99.90
12948;DHT22;6539;49.476;8.484;2023-08-30T00:38:32;16.40;99.90
12948;DHT22;6539;49.476;8.484;2023-08-30T00:41:21;16.30;99.90
12948;DHT22;6539;49.476;8.484;2023-08-30T00:44:09;16.20;99.90
12948;DHT22;6539;49.476;8.484;2023-08-30T00:46:56;16.20;99.90
12948;DHT22;6539;49.476;8.484;2023-08-30T00:49:47;16.20;99.90
12948;DHT22;6539;49.476;8.484;2023-08-30T00:52:33;16.20;99.90
12948;DHT22;6539;49.476;8.484;2023-08-30T00:55:21;16.20;99.90
12948;DHT22;6539;49.476;8.484;2023-08-30T00:58:08;16.20;99.90
12948;DHT22;6539;49.476;8.484;2023-08-30T01:00:56;16.20;99.90
12948;DHT22;6539;49.476;8.484;2023-08-30T01:03:43;16.20;99.90
12948;DHT22;6539;49.476;8.484;2023-08-30T01:06:29;16.20;99.90
12948;DHT22;6539;49.476;8.484;2023-08-30T01:09:15;16.10;99.90
12948;DHT22;6539;49.476;8.484;2023-08-30T01:12:23;16.20;99.90
12948;DHT22;6539;49.476;8.484;2023-08-30T01:15:15;16.20;99.90
12948;DHT22;6539;49.476;8.484;2023-08-30T01:18:07;16.20;99.90
12948;DHT22;6539;49.476;8.484;2023-08-30T01:20:56;16.20;99.90
12948;DHT22;6539;49.476;8.484;2023-08-30T01:23:58;16.10;99.90
12948;DHT22;6539;49.476;8.484;2023-08-30T01:27:11;16.10;99.90
12948;DHT22;6539;49.476;8.484;2023-08-30T01:29:58;16.10;99.90
12948;DHT22;6539;49.476;8.484;2023-08-30T01:32:48;16.10;99.90
12948;DHT22;6539;49.476;8.484;2023-08-30T01:35:36;16.10;99.90
12948;DHT22;6539;49.476;8.484;2023-08-30T01:38:29;16.10;99.90
12948;DHT22;6539;49.476;8.484;2023-08-30T01:41:18;16.10;99.90
12948;DHT22;6539;49.476;8.484;2023-08-30T01:44:09;16.10;99.90
12948;DHT22;6539;49.476;8.484;2023-08-30T01:46:57;16.10;99.90
12948;DHT22;6539;49.476;8.484;2023-08-30T01:49:44;16.10;99.90
12948;DHT22;6539;49.476;8.484;2023-08-30T01:52:32;16.00;99.90
12948;DHT22;6539;49.476;8.484;2023-08-30T01:55:20;16.10;99.90
12948;DHT22;6539;49.476;8.484;2023-08-30T01:58:08;16.00;99.90
12948;DHT22;6539;49.476;8.484;2023-08-30T02:00:55;16.10;99.90
12948;DHT22;6539;49.476;8.484;2023-08-30T02:03:45;16.10;99.90
12948;DHT22;6539;49.476;8.484;2023-08-30T02:06:45;16.00;99.90
12948;DHT22;6539;49.476;8.484;2023-08-30T02:10:00;16.00;99.90
12948;DHT22;6539;49.476;8.484;2023-08-30T02:12:54;16.00;99.90
12948;DHT22;6539;49.476;8.484;2023-08-30T02:15:46;16.00;99.90
12948;DHT22;6539;49.476;8.484;2023-08-30T02:18:33;16.00;99.90
12948;DHT22;6539;49.476;8.484;2023-08-30T02:21:24;16.20;99.90
12948;DHT22;6539;49.476;8.484;2023-08-30T02:24:10;16.10;99.90
12948;DHT22;6539;49.476;8.484;2023-08-30T02:27:01;16.30;99.90
12948;DHT22;6539;49.476;8.484;2023-08-30T02:29:50;16.20;99.90
12948;DHT22;6539;49.476;8.484;2023-08-30T02:32:38;16.20;99.90
12948;DHT22;6539;49.476;8.484;2023-08-30T02:35:24;16.20;99.90
12948;DHT22;6539;49.476;8.484;2023-08-30T02:38:10;16.30;99.90
12948;DHT22;6539;49.476;8.484;2023-08-30T02:40:56;16.20;99.90
12948;DHT22;6539;49.476;8.484;2023-08-30T02:43:42;16.30;99.90
12948;DHT22;6539;49.476;8.484;2023-08-30T02:46:28;16.30;99.90
12948;DHT22;6539;49.476;8.484;2023-08-30T02:49:14;16.30;99.90
12948;DHT22;6539;49.476;8.484;2023-08-30T02:52:00;16.20;99.90
12948;DHT22;6539;49.476;8.484;2023-08-30T02:54:48;16.20;99.90
12948;DHT22;6539;49.476;8.484;2023-08-30T02:57:34;16.10;99.90
12948;DHT22;6539;49.476;8.484;2023-08-30T03:00:20;16.10;99.90
12948;DHT22;6539;49.476;8.484;2023-08-30T03:03:07;16.10;99.90
12948;DHT22;6539;49.476;8.484;2023-08-30T03:05:58;16.00;99.90
12948;DHT22;6539;49.476;8.484;2023-08-30T03:08:44;16.00;99.90
12948;DHT22;6539;49.476;8.484;2023-08-30T03:11:32;15.90;99.90
12948;DHT22;6539;49.476;8.484;2023-08-30T03:14:20;15.90;99.90
12948;DHT22;6539;49.476;8.484;2023-08-30T03:17:07;15.90;99.90
12948;DHT22;6539;49.476;8.484;2023-08-30T03:19:55;15.90;99.90
12948;DHT22;6539;49.476;8.484;2023-08-30T03:22:41;15.80;99.90
12948;DHT22;6539;49.476;8.484;2023-08-30T03:25:32;15.80;99.90
12948;DHT22;6539;49.476;8.484;2023-08-30T03:28:18;15.80;99.90
12948;DHT22;6539;49.476;8.484;2023-08-30T03:31:15;15.80;99.90
12948;DHT22;6539;49.476;8.484;2023-08-30T03:34:02;15.80;99.90
12948;DHT22;6539;49.476;8.484;2023-08-30T03:36:50;15.80;99.90
12948;DHT22;6539;49.476;8.484;2023-08-30T03:39:40;15.80;99.90
12948;DHT22;6539;49.476;8.484;2023-08-30T03:42:26;15.80;99.90
12948;DHT22;6539;49.476;8.484;2023-08-30T03:45:14;15.80;99.90
12948;DHT22;6539;49.476;8.484;2023-08-30T03:48:05;15.80;99.90
12948;DHT22;6539;49.476;8.484;2023-08-30T03:50:54;15.70;99.90
12948;DHT22;6539;49.476;8.484;2023-08-30T03:53:43;15.70;99.90
12948;DHT22;6539;49.476;8.484;2023-08-30T03:56:29;15.70;99.90
12948;DHT22;6539;49.476;8.484;2023-08-30T03:59:17;15.60;99.90
12948;DHT22;6539;49.476;8.484;2023-08-30T04:02:03;15.70;99.90
12948;DHT22;6539;49.476;8.484;2023-08-30T04:04:52;15.70;99.90
12948;DHT22;6539;49.476;8.484;2023-08-30T04:07:38;15.70;99.90
12948;DHT22;6539;49.476;8.484;2023-08-30T04:10:24;15.70;99.90
12948;DHT22;6539;49.476;8.484;2023-08-30T04:13:10;15.70;99.90
12948;DHT22;6539;49.476;8.484;2023-08-30T04:15:59;15.70;99.90
12948;DHT22;6539;49.476;8.484;2023-08-30T04:18:47;15.60;99.90
12948;DHT22;6539;49.476;8.484;2023-08-30T04:21:33;15.60;99.90
12948;DHT22;6539;49.476;8.484;2023-08-30T04:24:21;15.60;99.90
12948;DHT22;6539;49.476;8.484;2023-08-30T04:27:07;15.60;99.90
12948;DHT22;6539;49.476;8.484;2023-08-30T04:29:53;15.60;99.90
12948;DHT22;6539;49.476;8.484;2023-08-30T04:32:42;15.50;99.90
12948;DHT22;6539;49.476;8.484;2023-08-30T04:35:30;15.50;99.90
12948;DHT22;6539;49.476;8.484;2023-08-30T04:38:17;15.50;99.90
12948;DHT22;6539;49.476;8.484;2023-08-30T04:41:09;15.50;99.90
12948;DHT22;6539;49.476;8.484;2023-08-30T04:43:55;15.50;99.90
12948;DHT22;6539;49.476;8.484;2023-08-30T04:46:41;15.50;99.90
12948;DHT22;6539;49.476;8.484;2023-08-30T04:49:29;15.50;99.90
12948;DHT22;6539;49.476;8.484;2023-08-30T04:52:17;15.50;99.90
12948;DHT22;6539;49.476;8.484;2023-08-30T04:55:04;15.50;99.90
12948;DHT22;6539;49.476;8.484;2023-08-30T04:57:52;15.50;99.90
12948;DHT22;6539;49.476;8.484;2023-08-30T05:00:39;15.50;99.90
12948;DHT22;6539;49.476;8.484;2023-08-30T05:03:27;15.50;99.90
12948;DHT22;6539;49.476;8.484;2023-08-30T05:06:13;15.40;99.90
12948;DHT22;6539;49.476;8.484;2023-08-30T05:09:02;15.40;99.90
12948;DHT22;6539;49.476;8.484;2023-08-30T05:11:51;15.40;99.90
12948;DHT22;6539;49.476;8.484;2023-08-30T05:14:37;15.40;99.90
12948;DHT22;6539;49.476;8.484;2023-08-30T05:17:23;15.40;99.90
12948;DHT22;6539;49.476;8.484;2023-08-30T05:20:12;15.40;99.90
12948;DHT22;6539;49.476;8.484;2023-08-30T05:23:01;15.40;99.90
12948;DHT22;6539;49.476;8.484;2023-08-30T05:25:48;15.40;99.90
12948;DHT22;6539;49.476;8.484;2023-08-30T05:28:34;15.40;99.90
12948;DHT22;6539;49.476;8.484;2023-08-30T05:31:20;15.50;99.90
12948;DHT22;6539;49.476;8.484;2023-08-30T05:34:06;15.50;99.90
12948;DHT22;6539;49.476;8.484;2023-08-30T05:36:55;15.40;99.90
12948;DHT22;6539;49.476;8.484;2023-08-30T05:39:43;15.50;99.90
12948;DHT22;6539;49.476;8.484;2023-08-30T05:42:29;15.50;99.90
12948;DHT22;6539;49.476;8.484;2023-08-30T05:45:15;15.50;99.90
12948;DHT22;6539;49.476;8.484;2023-08-30T05:48:04;15.50;99.90
12948;DHT22;6539;49.476;8.484;2023-08-30T05:50:50;15.50;99.90
12948;DHT22;6539;49.476;8.484;2023-08-30T05:53:39;15.50;99.90
12948;DHT22;6539;49.476;8.484;2023-08-30T05:56:25;15.50;99.90
12948;DHT22;6539;49.476;8.484;2023-08-30T05:59:13;15.60;99.90
12948;DHT22;6539;49.476;8.484;2023-08-30T06:02:02;15.70;99.90
12948;DHT22;6539;49.476;8.484;2023-08-30T06:04:49;15.70;99.90
12948;DHT22;6539;49.476;8.484;2023-08-30T06:07:38;15.60;99.90
12948;DHT22;6539;49.476;8.484;2023-08-30T06:10:24;15.70;99.90
12948;DHT22;6539;49.476;8.484;2023-08-30T06:13:18;15.70;99.90
12948;DHT22;6539;49.476;8.484;2023-08-30T06:16:06;15.70;99.90
12948;DHT22;6539;49.476;8.484;2023-08-30T06:18:53;15.70;99.90
12948;DHT22;6539;49.476;8.484;2023-08-30T06:21:39;15.70;99.90
12948;DHT22;6539;49.476;8.484;2023-08-30T06:24:25;15.80;99.90
12948;DHT22;6539;49.476;8.484;2023-08-30T06:27:11;15.70;99.90
12948;DHT22;6539;49.476;8.484;2023-08-30T06:30:01;15.80;99.90
12948;DHT22;6539;49.476;8.484;2023-08-30T06:32:52;15.80;99.90
12948;DHT22;6539;49.476;8.484;2023-08-30T06:35:39;15.70;99.90
12948;DHT22;6539;49.476;8.484;2023-08-30T06:38:25;15.70;99.90
12948;DHT22;6539;49.476;8.484;2023-08-30T06:41:13;15.80;99.90
12948;DHT22;6539;49.476;8.484;2023-08-30T06:43:59;15.80;99.90
12948;DHT22;6539;49.476;8.484;2023-08-30T06:46:45;15.80;99.90
12948;DHT22;6539;49.476;8.484;2023-08-30T06:49:32;15.80;99.90
12948;DHT22;6539;49.476;8.484;2023-08-30T06:52:18;15.80;99.90
12948;DHT22;6539;49.476;8.484;2023-08-30T06:55:04;15.80;99.90
12948;DHT22;6539;49.476;8.484;2023-08-30T06:57:50;15.70;99.90
12948;DHT22;6539;49.476;8.484;2023-08-30T07:00:36;15.80;99.90
12948;DHT22;6539;49.476;8.484;2023-08-30T07:03:25;15.80;99.90
12948;DHT22;6539;49.476;8.484;2023-08-30T07:06:11;15.90;99.90
12948;DHT22;6539;49.476;8.484;2023-08-30T07:08:57;15.90;99.90
12948;DHT22;6539;49.476;8.484;2023-08-30T07:11:43;16.00;99.90
12948;DHT22;6539;49.476;8.484;2023-08-30T07:14:35;16.00;99.90
12948;DHT22;6539;49.476;8.484;2023-08-30T07:17:21;16.10;99.90
12948;DHT22;6539;49.476;8.484;2023-08-30T07:20:08;16.10;99.90
12948;DHT22;6539;49.476;8.484;2023-08-30T07:22:54;16.10;99.90
12948;DHT22;6539;49.476;8.484;2023-08-30T07:25:45;16.20;99.90
12948;DHT22;6539;49.476;8.484;2023-08-30T07:28:31;16.30;99.90
12948;DHT22;6539;49.476;8.484;2023-08-30T07:31:17;16.40;99.90
12948;DHT22;6539;49.476;8.484;2023-08-30T07:34:04;16.40;99.90
12948;DHT22;6539;49.476;8.484;2023-08-30T07:36:50;16.40;99.90
12948;DHT22;6539;49.476;8.484;2023-08-30T07:39:38;16.40;99.90
12948;DHT22;6539;49.476;8.484;2023-08-30T07:42:29;16.50;99.90
12948;DHT22;6539;49.476;8.484;2023-08-30T07:45:18;16.60;99.90
12948;DHT22;6539;49.476;8.484;2023-08-30T07:48:04;16.70;99.90
12948;DHT22;6539;49.476;8.484;2023-08-30T07:50:50;16.80;99.90
12948;DHT22;6539;49.476;8.484;2023-08-30T07:53:36;16.90;99.90
12948;DHT22;6539;49.476;8.484;2023-08-30T07:56:25;17.00;99.90
12948;DHT22;6539;49.476;8.484;2023-08-30T07:59:13;17.00;99.90
12948;DHT22;6539;49.476;8.484;2023-08-30T08:02:00;17.00;99.90
12948;DHT22;6539;49.476;8.484;2023-08-30T08:04:46;17.00;99.90
12948;DHT22;6539;49.476;8.484;2023-08-30T08:07:32;17.10;99.90
12948;DHT22;6539;49.476;8.484;2023-08-30T08:10:21;17.20;99.90
12948;DHT22;6539;49.476;8.484;2023-08-30T08:13:07;17.30;99.90
12948;DHT22;6539;49.476;8.484;2023-08-30T08:15:58;17.50;99.90
12948;DHT22;6539;49.476;8.484;2023-08-30T08:18:44;17.60;99.90
12948;DHT22;6539;49.476;8.484;2023-08-30T08:21:30;17.50;99.90
12948;DHT22;6539;49.476;8.484;2023-08-30T08:24:23;17.60;99.90
12948;DHT22;6539;49.476;8.484;2023-08-30T08:27:09;17.70;99.90
12948;DHT22;6539;49.476;8.484;2023-08-30T08:29:55;17.60;99.90
12948;DHT22;6539;49.476;8.484;2023-08-30T08:32:41;17.70;99.90
12948;DHT22;6539;49.476;8.484;2023-08-30T08:35:27;17.70;99.90
12948;DHT22;6539;49.476;8.484;2023-08-30T08:38:15;17.70;99.90
12948;DHT22;6539;49.476;8.484;2023-08-30T08:41:05;17.80;99.90
12948;DHT22;6539;49.476;8.484;2023-08-30T08:43:52;17.80;99.90
12948;DHT22;6539;49.476;8.484;2023-08-30T08:46:41;17.90;99.90
12948;DHT22;6539;49.476;8.484;2023-08-30T08:49:27;18.00;99.90
12948;DHT22;6539;49.476;8.484;2023-08-30T08:52:18;18.00;99.90
12948;DHT22;6539;49.476;8.484;2023-08-30T08:55:04;18.10;99.90
12948;DHT22;6539;49.476;8.484;2023-08-30T08:57:51;18.10;99.90
12948;DHT22;6539;49.476;8.484;2023-08-30T09:00:40;18.30;99.90
12948;DHT22;6539;49.476;8.484;2023-08-30T09:03:28;18.30;99.90
12948;DHT22;6539;49.476;8.484;2023-08-30T09:06:14;18.30;99.90
12948;DHT22;6539;49.476;8.484;2023-08-30T09:09:07;18.30;99.90
12948;DHT22;6539;49.476;8.484;2023-08-30T09:11:54;18.30;99.90
12948;DHT22;6539;49.476;8.484;2023-08-30T09:14:40;18.40;99.90
12948;DHT22;6539;49.476;8.484;2023-08-30T09:17:39;18.40;99.90
12948;DHT22;6539;49.476;8.484;2023-08-30T09:20:25;18.60;99.90
12948;DHT22;6539;49.476;8.484;2023-08-30T09:23:23;18.70;99.90
12948;DHT22;6539;49.476;8.484;2023-08-30T09:26:11;18.60;99.90
12948;DHT22;6539;49.476;8.484;2023-08-30T09:29:04;18.80;99.90
12948;DHT22;6539;49.476;8.484;2023-08-30T09:31:52;18.90;99.90
12948;DHT22;6539;49.476;8.484;2023-08-30T09:34:45;18.90;99.90
12948;DHT22;6539;49.476;8.484;2023-08-30T09:37:32;18.90;99.90
12948;DHT22;6539;49.476;8.484;2023-08-30T09:40:21;19.00;99.90
12948;DHT22;6539;49.476;8.484;2023-08-30T09:43:08;19.10;99.90
12948;DHT22;6539;49.476;8.484;2023-08-30T09:45:54;19.30;99.90
12948;DHT22;6539;49.476;8.484;2023-08-30T09:48:43;19.30;99.90
12948;DHT22;6539;49.476;8.484;2023-08-30T09:51:30;19.30;99.90
12948;DHT22;6539;49.476;8.484;2023-08-30T09:54:22;19.40;99.90
12948;DHT22;6539;49.476;8.484;2023-08-30T09:57:14;19.50;99.90
12948;DHT22;6539;49.476;8.484;2023-08-30T10:00:03;19.70;99.90
12948;DHT22;6539;49.476;8.484;2023-08-30T10:03:00;19.80;99.90
12948;DHT22;6539;49.476;8.484;2023-08-30T10:05:47;20.20;99.90
12948;DHT22;6539;49.476;8.484;2023-08-30T10:08:36;20.10;99.90
12948;DHT22;6539;49.476;8.484;2023-08-30T10:11:27;20.20;99.90
12948;DHT22;6539;49.476;8.484;2023-08-30T10:14:17;20.10;99.90
12948;DHT22;6539;49.476;8.484;2023-08-30T10:17:03;19.90;99.90
12948;DHT22;6539;49.476;8.484;2023-08-30T10:19:51;19.90;99.90
12948;DHT22;6539;49.476;8.484;2023-08-30T10:22:43;20.00;99.90
12948;DHT22;6539;49.476;8.484;2023-08-30T10:25:33;19.90;99.90
12948;DHT22;6539;49.476;8.484;2023-08-30T10:28:21;20.10;99.90
12948;DHT22;6539;49.476;8.484;2023-08-30T10:31:09;20.30;99.90
12948;DHT22;6539;49.476;8.484;2023-08-30T10:33:55;20.30;99.90
12948;DHT22;6539;49.476;8.484;2023-08-30T10:36:44;20.20;99.90
12948;DHT22;6539;49.476;8.484;2023-08-30T10:39:42;20.30;99.90
12948;DHT22;6539;49.476;8.484;2023-08-30T10:42:28;20.50;99.90
12948;DHT22;6539;49.476;8.484;2023-08-30T10:45:23;21.00;99.90
12948;DHT22;6539;49.476;8.484;2023-08-30T10:48:11;21.10;99.90
12948;DHT22;6539;49.476;8.484;2023-08-30T10:50:57;21.40;99.90
12948;DHT22;6539;49.476;8.484;2023-08-30T10:53:43;21.70;99.90
12948;DHT22;6539;49.476;8.484;2023-08-30T10:56:30;22.10;99.90
12948;DHT22;6539;49.476;8.484;2023-08-30T10:59:20;22.20;99.90
12948;DHT22;6539;49.476;8.484;2023-08-30T11:02:10;22.30;99.90
12948;DHT22;6539;49.476;8.484;2023-08-30T11:04:57;22.10;99.90
12948;DHT22;6539;49.476;8.484;2023-08-30T11:07:45;22.40;99.90
12948;DHT22;6539;49.476;8.484;2023-08-30T11:10:36;22.30;99.90
12948;DHT22;6539;49.476;8.484;2023-08-30T11:13:26;22.60;99.90
12948;DHT22;6539;49.476;8.484;2023-08-30T11:16:12;22.80;99.90
12948;DHT22;6539;49.476;8.484;2023-08-30T11:19:04;23.10;99.90
12948;DHT22;6539;49.476;8.484;2023-08-30T11:21:51;23.30;99.90
12948;DHT22;6539;49.476;8.484;2023-08-30T11:24:37;23.30;99.90
12948;DHT22;6539;49.476;8.484;2023-08-30T11:27:28;23.00;99.90
12948;DHT22;6539;49.476;8.484;2023-08-30T11:30:14;23.10;99.90
12948;DHT22;6539;49.476;8.484;2023-08-30T11:33:04;23.20;99.90
12948;DHT22;6539;49.476;8.484;2023-08-30T11:35:51;23.30;99.90
12948;DHT22;6539;49.476;8.484;2023-08-30T11:38:40;23.50;99.90
12948;DHT22;6539;49.476;8.484;2023-08-30T11:41:28;23.70;99.90
12948;DHT22;6539;49.476;8.484;2023-08-30T11:44:17;23.90;99.90
12948;DHT22;6539;49.476;8.484;2023-08-30T11:47:05;24.10;99.90
12948;DHT22;6539;49.476;8.484;2023-08-30T11:49:57;24.30;99.90
12948;DHT22;6539;49.476;8.484;2023-08-30T11:52:43;24.20;99.90
12948;DHT22;6539;49.476;8.484;2023-08-30T11:55:32;24.50;99.90
12948;DHT22;6539;49.476;8.484;2023-08-30T11:58:23;24.30;99.90
12948;DHT22;6539;49.476;8.484;2023-08-30T12:01:09;24.80;99.90
12948;DHT22;6539;49.476;8.484;2023-08-30T12:04:11;25.10;99.90
12948;DHT22;6539;49.476;8.484;2023-08-30T12:06:57;24.80;99.90
12948;DHT22;6539;49.476;8.484;2023-08-30T12:09:45;25.00;99.90
12948;DHT22;6539;49.476;8.484;2023-08-30T12:12:35;24.70;99.90
12948;DHT22;6539;49.476;8.484;2023-08-30T12:15:30;24.70;99.90
12948;DHT22;6539;49.476;8.484;2023-08-30T12:18:27;24.20;99.90
12948;DHT22;6539;49.476;8.484;2023-08-30T12:21:14;23.90;99.90
12948;DHT22;6539;49.476;8.484;2023-08-30T12:24:01;24.00;99.90
12948;DHT22;6539;49.476;8.484;2023-08-30T12:26:49;24.40;99.90
12948;DHT22;6539;49.476;8.484;2023-08-30T12:29:35;24.00;99.90
12948;DHT22;6539;49.476;8.484;2023-08-30T12:32:21;23.60;99.90
12948;DHT22;6539;49.476;8.484;2023-08-30T12:35:10;23.80;99.90
12948;DHT22;6539;49.476;8.484;2023-08-30T12:37:59;24.30;99.90
12948;DHT22;6539;49.476;8.484;2023-08-30T12:40:52;24.70;99.90
12948;DHT22;6539;49.476;8.484;2023-08-30T12:43:44;24.30;99.90
12948;DHT22;6539;49.476;8.484;2023-08-30T12:46:30;24.10;99.90
12948;DHT22;6539;49.476;8.484;2023-08-30T12:49:19;24.20;99.90
12948;DHT22;6539;49.476;8.484;2023-08-30T12:52:05;24.70;99.90
12948;DHT22;6539;49.476;8.484;2023-08-30T12:54:51;25.20;99.90
12948;DHT22;6539;49.476;8.484;2023-08-30T12:57:39;25.10;99.90
12948;DHT22;6539;49.476;8.484;2023-08-30T13:00:25;25.10;99.90
12948;DHT22;6539;49.476;8.484;2023-08-30T13:03:11;24.20;99.90
12948;DHT22;6539;49.476;8.484;2023-08-30T13:06:00;24.50;99.90
12948;DHT22;6539;49.476;8.484;2023-08-30T13:08:49;25.10;99.90
12948;DHT22;6539;49.476;8.484;2023-08-30T13:11:35;24.80;99.90
12948;DHT22;6539;49.476;8.484;2023-08-30T13:14:21;24.40;99.90
12948;DHT22;6539;49.476;8.484;2023-08-30T13:17:07;24.60;99.90
12948;DHT22;6539;49.476;8.484;2023-08-30T13:19:53;24.80;99.90
12948;DHT22;6539;49.476;8.484;2023-08-30T13:22:39;25.40;99.90
12948;DHT22;6539;49.476;8.484;2023-08-30T13:25:30;26.00;99.90
12948;DHT22;6539;49.476;8.484;2023-08-30T13:28:19;27.00;99.90
12948;DHT22;6539;49.476;8.484;2023-08-30T13:31:08;27.20;99.90
12948;DHT22;6539;49.476;8.484;2023-08-30T13:33:54;26.60;99.90
12948;DHT22;6539;49.476;8.484;2023-08-30T13:36:42;27.00;99.90
12948;DHT22;6539;49.476;8.484;2023-08-30T13:39:31;27.00;99.20
12948;DHT22;6539;49.476;8.484;2023-08-30T13:42:17;26.80;98.20
12948;DHT22;6539;49.476;8.484;2023-08-30T13:45:07;26.90;98.90
12948;DHT22;6539;49.476;8.484;2023-08-30T13:47:55;26.80;98.50
12948;DHT22;6539;49.476;8.484;2023-08-30T13:50:41;26.90;98.60
12948;DHT22;6539;49.476;8.484;2023-08-30T13:53:27;26.90;98.50
12948;DHT22;6539;49.476;8.484;2023-08-30T13:56:13;27.10;98.20
12948;DHT22;6539;49.476;8.484;2023-08-30T13:58:59;27.60;97.30
12948;DHT22;6539;49.476;8.484;2023-08-30T14:01:46;26.80;97.00
12948;DHT22;6539;49.476;8.484;2023-08-30T14:04:34;26.50;96.90
12948;DHT22;6539;49.476;8.484;2023-08-30T14:07:27;26.80;96.00
12948;DHT22;6539;49.476;8.484;2023-08-30T14:10:13;26.80;95.40
12948;DHT22;6539;49.476;8.484;2023-08-30T14:13:04;25.90;95.50
12948;DHT22;6539;49.476;8.484;2023-08-30T14:15:51;25.10;96.90
12948;DHT22;6539;49.476;8.484;2023-08-30T14:18:37;24.90;97.60
12948;DHT22;6539;49.476;8.484;2023-08-30T14:21:23;24.70;98.00
12948;DHT22;6539;49.476;8.484;2023-08-30T14:24:12;24.60;98.10
12948;DHT22;6539;49.476;8.484;2023-08-30T14:27:00;24.40;98.30
12948;DHT22;6539;49.476;8.484;2023-08-30T14:29:48;24.40;98.20
12948;DHT22;6539;49.476;8.484;2023-08-30T14:32:37;24.40;98.30
12948;DHT22;6539;49.476;8.484;2023-08-30T14:35:25;24.40;98.70
12948;DHT22;6539;49.476;8.484;2023-08-30T14:38:11;24.00;99.30
12948;DHT22;6539;49.476;8.484;2023-08-30T14:41:00;23.80;99.60
12948;DHT22;6539;49.476;8.484;2023-08-30T14:43:46;23.90;99.90
12948;DHT22;6539;49.476;8.484;2023-08-30T14:46:32;23.80;99.90
12948;DHT22;6539;49.476;8.484;2023-08-30T14:49:19;23.80;99.90
12948;DHT22;6539;49.476;8.484;2023-08-30T14:52:05;23.80;99.10
12948;DHT22;6539;49.476;8.484;2023-08-30T14:54:56;23.80;99.50
12948;DHT22;6539;49.476;8.484;2023-08-30T14:57:42;23.70;99.20
12948;DHT22;6539;49.476;8.484;2023-08-30T15:00:28;23.50;99.90
12948;DHT22;6539;49.476;8.484;2023-08-30T15:03:14;23.50;99.90
12948;DHT22;6539;49.476;8.484;2023-08-30T15:06:00;23.50;99.30
12948;DHT22;6539;49.476;8.484;2023-08-30T15:08:51;23.50;99.50
12948;DHT22;6539;49.476;8.484;2023-08-30T15:11:39;23.60;99.50
12948;DHT22;6539;49.476;8.484;2023-08-30T15:14:26;23.70;99.60
12948;DHT22;6539;49.476;8.484;2023-08-30T15:17:14;23.80;99.70
12948;DHT22;6539;49.476;8.484;2023-08-30T15:20:01;23.80;99.40
12948;DHT22;6539;49.476;8.484;2023-08-30T15:22:51;23.70;99.80
12948;DHT22;6539;49.476;8.484;2023-08-30T15:25:39;23.60;99.90
12948;DHT22;6539;49.476;8.484;2023-08-30T15:28:28;23.70;99.90
12948;DHT22;6539;49.476;8.484;2023-08-30T15:31:17;23.60;99.90
12948;DHT22;6539;49.476;8.484;2023-08-30T15:34:04;23.60;99.90
12948;DHT22;6539;49.476;8.484;2023-08-30T15:36:50;23.80;99.90
12948;DHT22;6539;49.476;8.484;2023-08-30T15:39:40;23.90;99.90
12948;DHT22;6539;49.476;8.484;2023-08-30T15:42:26;24.10;99.90
12948;DHT22;6539;49.476;8.484;2023-08-30T15:45:12;24.30;99.90
12948;DHT22;6539;49.476;8.484;2023-08-30T15:47:58;24.10;99.90
12948;DHT22;6539;49.476;8.484;2023-08-30T15:50:44;24.00;99.90
12948;DHT22;6539;49.476;8.484;2023-08-30T15:53:31;23.70;99.90
12948;DHT22;6539;49.476;8.484;2023-08-30T15:56:18;23.30;99.90
12948;DHT22;6539;49.476;8.484;2023-08-30T15:59:09;23.10;99.90
12948;DHT22;6539;49.476;8.484;2023-08-30T16:01:59;23.50;99.90
12948;DHT22;6539;49.476;8.484;2023-08-30T16:04:47;24.10;99.90
12948;DHT22;6539;49.476;8.484;2023-08-30T16:07:38;24.10;99.90
12948;DHT22;6539;49.476;8.484;2023-08-30T16:10:24;23.80;99.90
12948;DHT22;6539;49.476;8.484;2023-08-30T16:13:17;23.70;99.90
12948;DHT22;6539;49.476;8.484;2023-08-30T16:16:03;23.60;99.90
12948;DHT22;6539;49.476;8.484;2023-08-30T16:18:49;23.30;99.90
12948;DHT22;6539;49.476;8.484;2023-08-30T16:21:36;23.20;99.90
12948;DHT22;6539;49.476;8.484;2023-08-30T16:24:22;23.00;99.90
12948;DHT22;6539;49.476;8.484;2023-08-30T16:27:08;22.80;99.90
12948;DHT22;6539;49.476;8.484;2023-08-30T16:29:54;22.70;99.90
12948;DHT22;6539;49.476;8.484;2023-08-30T16:32:40;22.70;99.90
12948;DHT22;6539;49.476;8.484;2023-08-30T16:35:27;22.70;99.90
12948;DHT22;6539;49.476;8.484;2023-08-30T16:38:13;22.60;99.90
12948;DHT22;6539;49.476;8.484;2023-08-30T16:40:59;22.50;99.90
12948;DHT22;6539;49.476;8.484;2023-08-30T16:43:55;22.20;99.90
12948;DHT22;6539;49.476;8.484;2023-08-30T16:46:43;22.20;99.90
12948;DHT22;6539;49.476;8.484;2023-08-30T16:49:32;22.20;99.90
12948;DHT22;6539;49.476;8.484;2023-08-30T16:52:18;22.10;99.90
12948;DHT22;6539;49.476;8.484;2023-08-30T16:55:04;22.10;99.90
12948;DHT22;6539;49.476;8.484;2023-08-30T16:57:50;22.00;99.90
12948;DHT22;6539;49.476;8.484;2023-08-30T17:00:38;22.00;99.90
12948;DHT22;6539;49.476;8.484;2023-08-30T17:03:26;21.80;99.90
12948;DHT22;6539;49.476;8.484;2023-08-30T17:06:12;21.70;99.90
12948;DHT22;6539;49.476;8.484;2023-08-30T17:08:58;21.60;99.90
12948;DHT22;6539;49.476;8.484;2023-08-30T17:11:51;21.60;99.90
12948;DHT22;6539;49.476;8.484;2023-08-30T17:14:37;21.50;99.90
12948;DHT22;6539;49.476;8.484;2023-08-30T17:17:23;21.40;99.90
12948;DHT22;6539;49.476;8.484;2023-08-30T17:20:11;21.30;99.90
12948;DHT22;6539;49.476;8.484;2023-08-30T17:23:00;21.30;99.90
12948;DHT22;6539;49.476;8.484;2023-08-30T17:25:49;21.30;99.90
12948;DHT22;6539;49.476;8.484;2023-08-30T17:28:36;21.20;99.90
12948;DHT22;6539;49.476;8.484;2023-08-30T17:31:25;21.10;99.90
12948;DHT22;6539;49.476;8.484;2023-08-30T17:34:12;21.10;99.90
12948;DHT22;6539;49.476;8.484;2023-08-30T17:36:58;21.20;99.90
12948;DHT22;6539;49.476;8.484;2023-08-30T17:39:48;21.10;99.90
12948;DHT22;6539;49.476;8.484;2023-08-30T17:42:38;21.00;99.90
12948;DHT22;6539;49.476;8.484;2023-08-30T17:45:24;21.00;99.90
12948;DHT22;6539;49.476;8.484;2023-08-30T17:48:13;21.10;99.90
12948;DHT22;6539;49.476;8.484;2023-08-30T17:50:59;21.00;99.90
12948;DHT22;6539;49.476;8.484;2023-08-30T17:53:47;21.00;99.90
12948;DHT22;6539;49.476;8.484;2023-08-30T17:56:34;21.00;99.90
12948;DHT22;6539;49.476;8.484;2023-08-30T17:59:20;20.90;99.90